• Join FlightAware (Why Join?)
  • Login
  • US Flag 
06:28PM EDT


 

Airport Tracker/Info


-or-


 

Live Flight TrackerFlight Track Log ✈ ACA831 ✈ 15-Aug-2013 ✈ LSGG / GVA - CYUL

Flight Track Log - Related Links

Times and Time Zones

All times are in EDT time to prevent confusion due to time zone crossing. See the ACA831 flight status page for this flight to view local times or setup timezone preferences in your user account.

Time Position Orientation Groundspeed Altitude Reporting Facility
EDT Latitude Longitude Course Direction KTS MPH feet Rate Location/Type
06:14AM 46.2280 6.0960 360° North 130 150  Level FlightAware
06:14AM 46.2390 6.1110 43° Northeast 172 198 1,300 3,300 Climbing FlightAware
06:15AM 46.2490 6.1270 48° Northeast 174 200 2,200 2,820 Climbing FlightAware
06:15AM 46.2620 6.1450 44° Northeast 174 200 3,200 2,700 Climbing FlightAware
06:15AM 46.2740 6.1630 46° Northeast 184 212 4,000 2,400 Climbing FlightAware
06:16AM 46.2820 6.1750 46° Northeast 187 215 4,600 1,680 Climbing FlightAware
06:16AM 46.2950 6.1940 45° Northeast 212 244 5,000 1,140 Climbing FlightAware
06:16AM 46.3110 6.2190 47° Northeast 243 280 5,400 1,800 Climbing FlightAware
06:17AM 46.3260 6.2420 47° Northeast 258 297 6,200 2,580 Climbing FlightAware
06:17AM 46.3430 6.2680 47° Northeast 267 307 7,100 2,880 Climbing FlightAware
06:17AM 46.3560 6.2870 45° Northeast 276 318 7,900 3,120 Climbing FlightAware
06:18AM 46.3800 6.3240 47° Northeast 282 325 9,200 2,940 Climbing FlightAware
06:18AM 46.4070 6.3640 46° Northeast 295 339 10,600 2,100 Climbing FlightAware
06:18AM 46.4220 6.3760 29° Northeast 310 357 10,800 900 Climbing FlightAware
06:19AM 46.4640 6.3810 North 352 405 11,200 1,140 Climbing FlightAware
06:19AM 46.5260 6.3840 North 386 444 12,000 1,680 Climbing FlightAware
06:20AM 46.5690 6.3790 355° North 396 456 12,900 2,760 Climbing FlightAware
06:20AM 46.6230 6.3450 337° Northwest 405 466 14,500 2,880 Climbing FlightAware
06:21AM 46.6870 6.2940 331° Northwest 407 468 16,300 2,700 Climbing FlightAware
06:21AM 46.7190 6.2580 322° Northwest 417 480 17,200 2,520 Climbing FlightAware
06:22AM 46.7410 6.2130 306° West 416 479 18,000 2,520 Climbing FlightAware
06:22AM 46.7550 6.1570 290° West 420 483 18,900 2,460 Climbing FlightAware
06:23AM 46.7700 6.0660 284° West 427 491 20,300 2,280 Climbing FlightAware
06:23AM 46.7870 5.9780 286° West 434 499 21,400 2,100 Climbing FlightAware
06:24AM 46.8210 5.8920 300° West 437 503 22,600 1,680 Climbing FlightAware
06:24AM 46.8750 5.7890 308° West 446 513 23,600 1,440 Climbing FlightAware
06:25AM 46.9200 5.7010 307° West 454 522 24,500 1,620 Climbing FlightAware
06:25AM 46.9610 5.6230 308° West 459 528 25,500 1,920 Climbing FlightAware
06:26AM 47.0070 5.5340 307° West 462 532 26,700 2,220 Climbing FlightAware
06:27AM 47.0510 5.4490 307° West 456 525 28,100 2,340 Climbing FlightAware
06:27AM 47.0940 5.3640 307° West 452 520 29,400 1,860 Climbing FlightAware
06:28AM 47.1420 5.2700 307° West 453 521 30,400 1,680 Climbing FlightAware
06:28AM 47.1820 5.1930 307° West 450 518 31,400 1,380 Climbing FlightAware
06:29AM 47.2250 5.1080 307° West 455 524 32,000 480 Climbing FlightAware
06:29AM 47.2660 5.0280 307° West 456 525 32,000  Level FlightAware
06:30AM 47.3110 4.9380 306° West 454 522 32,000  Level FlightAware
06:31AM 47.3560 4.8500 307° West 451 519 32,000  Level FlightAware
06:31AM 47.4000 4.7620 306° West 451 519 32,000  Level FlightAware
06:32AM 47.4500 4.6620 307° West 449 517 32,000  Level FlightAware
06:33AM 47.4980 4.5670 307° West 450 518 32,000  Level FlightAware
06:33AM 47.5390 4.4840 306° West 450 518 32,000  Level FlightAware
06:34AM 47.5840 4.3940 307° West 449 517 32,000  Level FlightAware
06:34AM 47.6330 4.3050 309° West 450 518 32,000  Level FlightAware
06:35AM 47.6800 4.2250 311° West 451 519 32,000  Level FlightAware
06:35AM 47.7240 4.1510 311° West 451 519 32,000  Level FlightAware
06:36AM 47.7720 4.0730 312° West 452 520 32,000  Level FlightAware
06:37AM 47.8200 3.9930 312° West 451 519 32,000  Level FlightAware
06:37AM 47.8730 3.9060 312° West 451 519 32,000  Level FlightAware
06:38AM 47.9200 3.8280 312° West 451 519 32,000  Level FlightAware
06:38AM 47.9740 3.7380 312° West 451 519 32,000  Level FlightAware
06:39AM 48.0170 3.6650 311° West 451 519 32,000  Level FlightAware
06:40AM 48.0630 3.5870 311° West 451 519 32,000  Level FlightAware
06:40AM 48.1060 3.5150 312° West 450 518 32,000  Level FlightAware
06:41AM 48.1630 3.4180 311° West 449 517 32,000  Level FlightAware
06:41AM 48.2110 3.3360 311° West 449 517 32,000  Level FlightAware
06:42AM 48.2620 3.2490 311° West 449 517 32,000  Level FlightAware
06:42AM 48.3020 3.1780 310° West 447 514 32,000  Level FlightAware
06:43AM 48.3390 3.0720 298° West 444 511 32,000  Level FlightAware
06:44AM 48.3620 2.9630 288° West 443 510 32,000  Level FlightAware
06:44AM 48.3810 2.8740 288° West 443 510 32,000  Level FlightAware
06:45AM 48.4020 2.7710 287° West 443 510 32,000 600 Level FlightAware
06:45AM 48.4250 2.6590 287° West 443 510 32,800 1,260 Climbing FlightAware
06:46AM 48.4430 2.5650 286° West 443 510 33,500 1,080 Climbing FlightAware
06:46AM 48.4620 2.4740 288° West 445 512 34,000 420 Climbing FlightAware
06:47AM 48.4850 2.3530 286° West 444 511 34,000  Level FlightAware
06:48AM 48.5070 2.2430 287° West 442 509 34,000  Level FlightAware
06:48AM 48.5240 2.1600 287° West 441 507 34,000  Level FlightAware
06:48AM 48.5246 2.1445 287° West 1 1 34,000  Level FlightAware UK
06:49AM 48.5460 2.0490 287° West 441 507 34,000  Level FlightAware
06:50AM 48.5710 1.9240 287° West 440 506 34,000  Level FlightAware
06:50AM 48.5950 1.7990 286° West 436 502 34,000  Level FlightAware
06:51AM 48.6100 1.7220 286° West 439 505 34,000  Level FlightAware
06:52AM 48.6330 1.5900 285° West 438 504 34,000  Level FlightAware
06:52AM 48.6560 1.4670 286° West 436 502 34,000  Level FlightAware
06:53AM 48.6780 1.3520 286° West 438 504 34,000  Level FlightAware
06:53AM 48.6920 1.2650 286° West 466 536 34,000  Level FlightAware UK
06:53AM 48.6990 1.2410 286° West 438 504 34,000  Level FlightAware
06:54AM 48.7190 1.1390 287° West 438 504 34,000  Level FlightAware
06:55AM 48.7380 1.0360 286° West 439 505 34,000  Level FlightAware
06:55AM 48.7580 0.9330 286° West 438 504 34,000  Level FlightAware
06:56AM 48.7770 0.8330 286° West 439 505 34,000  Level FlightAware
06:56AM 48.7980 0.7180 286° West 438 504 34,000  Level FlightAware
06:57AM 48.8120 0.6400 285° West 438 504 34,000  Level FlightAware
06:57AM 48.8269 0.5408 285° West 468 539 34,000  Level FlightAware UK
06:57AM 48.8330 0.5220 285° West 439 505 34,000  Level FlightAware
06:58AM 48.8530 0.4160 286° West 438 504 34,000  Level FlightAware
06:59AM 48.8720 0.3060 285° West 438 504 34,000  Level FlightAware
06:59AM 48.8890 0.2120 285° West 438 504 34,000  Level FlightAware
07:00AM 48.9070 0.1120 285° West 437 503 34,000  Level FlightAware
07:00AM 48.9270 -0.0030 285° West 437 503 34,000  Level FlightAware
07:01AM 48.9430 -0.0940 285° West 437 503 34,000  Level FlightAware
07:02AM 48.9600 -0.1940 285° West 436 502 34,000  Level FlightAware
07:02AM 48.9790 -0.3060 285° West 435 501 34,000  Level FlightAware
07:03AM 48.9990 -0.4200 285° West 435 501 34,000  Level FlightAware
07:03AM 49.0150 -0.5150 284° West 434 499 34,000  Level FlightAware
07:04AM 49.0340 -0.6270 285° West 434 499 34,000  Level FlightAware
07:05AM 49.0500 -0.7230 284° West 433 498 34,000  Level FlightAware
07:05AM 49.0670 -0.8270 284° West 433 498 34,000  Level FlightAware
07:06AM 49.0840 -0.9300 284° West 432 497 34,000  Level FlightAware
07:06AM 49.1000 -1.0280 284° West 431 496 34,000  Level FlightAware
07:07AM 49.1180 -1.1370 284° West 431 496 34,000  Level FlightAware
07:07AM 49.1340 -1.2360 284° West 431 496 34,000  Level FlightAware
07:08AM 49.1510 -1.3430 284° West 429 494 34,000  Level FlightAware
07:09AM 49.1670 -1.4410 284° West 428 493 34,000  Level FlightAware
07:09AM 49.1850 -1.5530 284° West 430 495 34,000  Level FlightAware
07:10AM 49.1962 -1.6333 284° West 468 539 34,000  Level FlightAware UK
07:10AM 49.1990 -1.6410 284° West 430 495 34,000  Level FlightAware
07:10AM 49.2102 -1.7216 284° West 468 539 34,000  Level FlightAware UK
07:10AM 49.2150 -1.7410 284° West 430 495 34,000  Level FlightAware
07:11AM 49.2330 -1.8570 283° West 429 494 34,000  Level FlightAware
07:11AM 49.2466 -1.9502 283° West 470 541 34,000  Level FlightAware UK
07:11AM 49.2490 -1.9600 283° West 428 493 34,000  Level FlightAware
07:12AM 49.2650 -2.0610 284° West 428 493 34,000  Level FlightAware
07:13AM 49.2810 -2.1690 283° West 428 493 34,000  Level FlightAware
07:13AM 49.2960 -2.2680 283° West 429 494 34,000  Level FlightAware
07:14AM 49.3110 -2.3720 283° West 428 493 34,000  Level FlightAware
07:14AM 49.3270 -2.4790 283° West 427 491 34,000  Level FlightAware
07:15AM 49.3430 -2.5850 283° West 429 494 34,000  Level FlightAware
07:16AM 49.3580 -2.6860 283° West 430 495 34,000  Level FlightAware
07:16AM 49.3740 -2.7940 283° West 432 497 34,000  Level FlightAware
07:17AM 49.3890 -2.8940 283° West 433 498 34,000  Level FlightAware
07:17AM 49.4030 -2.9910 283° West 434 499 34,000  Level FlightAware
07:18AM 49.4200 -3.1040 283° West 435 501 34,000  Level FlightAware
07:19AM 49.4350 -3.2140 282° West 435 501 34,000  Level FlightAware
07:19AM 49.4490 -3.3110 283° West 435 501 34,000  Level FlightAware
07:20AM 49.4640 -3.4190 282° West 436 502 34,000  Level FlightAware
07:20AM 49.4798 -3.5202 282° West 472 543 34,000  Level FlightAware UK
07:20AM 49.4800 -3.5290 282° West 436 502 34,000  Level FlightAware
07:21AM 49.4950 -3.6285 282° West 470 541 34,000  Level FlightAware UK
07:21AM 49.4950 -3.6380 282° West 436 502 34,000  Level FlightAware
07:21AM 49.5080 -3.7360 282° West 435 501 34,000  Level FlightAware
07:21AM 49.5104 -3.7373 282° West 472 543 34,000  Level FlightAware UK
07:22AM 49.5230 -3.8280 282° West 472 543 34,000  Level FlightAware UK
07:22AM 49.5230 -3.8440 282° West 435 501 34,000  Level FlightAware
07:23AM 49.5380 -3.9540 282° West 434 499 34,000  Level FlightAware
07:23AM 49.5530 -4.0470 284° West 432 497 34,000  Level FlightAware
07:24AM 49.5836 -4.1241 284° West 470 541 34,000  Level FlightAware UK
07:24AM 49.5880 -4.1460 284° West 430 495 34,000  Level FlightAware
07:24AM 49.6310 -4.2310 308° West 430 495 34,000  Level FlightAware
07:25AM 49.6760 -4.3190 308° West 430 495 34,000  Level FlightAware
07:26AM 49.7200 -4.4060 308° West 430 495 34,000  Level FlightAware
07:26AM 49.7590 -4.4830 308° West 429 494 34,000  Level FlightAware
07:27AM 49.8050 -4.5750 308° West 430 495 34,000  Level FlightAware
07:27AM 49.8430 -4.6510 308° West 429 494 34,000  Level FlightAware
07:28AM 49.8830 -4.7300 308° West 428 493 34,000  Level FlightAware
07:28AM 49.8925 -4.7331 308° West 468 539 34,000  Level FlightAware UK
07:28AM 49.9289 -4.8059 308° West 468 539 34,000  Level FlightAware UK
07:28AM 49.9300 -4.8260 308° West 428 493 34,000  Level FlightAware
07:29AM 49.9690 -4.9040 308° West 429 494 34,000  Level FlightAware
07:30AM 50.0150 -4.9970 308° West 428 493 34,000  Level FlightAware
07:30AM 50.0580 -5.0850 307° West 428 493 34,000  Level FlightAware
07:31AM 50.1020 -5.1730 308° West 428 493 34,000  Level FlightAware
07:31AM 50.1410 -5.2530 307° West 429 494 34,000  Level FlightAware
07:32AM 50.1840 -5.3420 307° West 428 493 34,000  Level FlightAware
07:32AM 50.2220 -5.4210 307° West 427 491 34,000  Level FlightAware
07:33AM 50.2670 -5.5130 307° West 427 491 34,000  Level FlightAware
07:34AM 50.3119 -5.5833 307° West 472 543 34,000  Level FlightAware UK
07:34AM 50.3060 -5.5920 307° West 427 491 34,000  Level FlightAware
07:34AM 50.3479 -5.6567 307° West 470 541 34,000  Level FlightAware UK
07:34AM 50.3530 -5.6890 307° West 428 493 34,000  Level FlightAware
07:35AM 50.3890 -5.7640 307° West 427 491 34,000  Level FlightAware
07:35AM 50.4290 -5.8480 307° West 427 491 34,000  Level FlightAware
07:36AM 50.4710 -5.9360 307° West 426 490 34,000  Level FlightAware
07:37AM 50.5150 -6.0290 307° West 426 490 34,000  Level FlightAware
07:37AM 50.5520 -6.1060 307° West 425 489 34,000  Level FlightAware
07:38AM 50.5970 -6.1990 307° West 425 489 34,000  Level FlightAware
07:38AM 50.6040 -6.1886 307° West 472 543 34,000  Level FlightAware UK
07:38AM 50.6393 -6.2626 307° West 472 543 34,000  Level FlightAware UK
07:38AM 50.6390 -6.2880 307° West 424 488 34,000  Level FlightAware
07:39AM 50.6790 -6.3750 306° West 423 487 34,000  Level FlightAware
07:40AM 50.7220 -6.4660 307° West 423 487 34,000  Level FlightAware
07:40AM 50.7590 -6.5470 306° West 424 488 34,000  Level FlightAware
07:41AM 50.8020 -6.6390 307° West 424 488 34,000  Level FlightAware
07:41AM 50.8475 -6.7100 307° West 474 545 34,000  Level FlightAware UK
07:41AM 50.8430 -6.7290 307° West 424 488 34,000  Level FlightAware
07:42AM 50.8820 -6.8130 306° West 422 486 34,000  Level FlightAware
07:42AM 50.9200 -6.8940 307° West 421 484 34,000  Level FlightAware
07:43AM 50.9630 -6.9880 306° West 420 483 34,000  Level FlightAware
07:44AM 51.0040 -7.0770 306° West 419 482 34,000  Level FlightAware
07:44AM 51.0380 -7.1520 306° West 419 482 34,000  Level FlightAware
07:45AM 51.0810 -7.2460 306° West 419 482 34,000  Level FlightAware
07:45AM 51.1140 -7.3190 306° West 419 482 34,000  Level FlightAware
07:45AM 51.1311 -7.3202 306° West 468 539 34,000  Level FlightAware UK
07:46AM 51.1645 -7.3952 306° West 468 539 34,000  Level FlightAware UK
07:46AM 51.1640 -7.4290 306° West 419 482 34,000  Level FlightAware
07:47AM 51.1970 -7.5030 305° West 420 483 34,000  Level FlightAware
07:47AM 51.2410 -7.5910 309° West 425 489 34,000  Level FlightAware
07:48AM 51.2950 -7.6534 309° West 470 541 34,000  Level FlightAware UK
07:48AM 51.2870 -7.6640 309° West 428 493 34,000  Level FlightAware
07:48AM 51.3330 -7.7340 316° Northwest 422 486 34,000  Level FlightAware
07:49AM 51.3860 -7.8150 316° Northwest 428 493 34,000  Level FlightAware
07:49AM 51.4460 -7.9060 317° Northwest 428 493 34,000  Level FlightAware
07:50AM 51.4910 -7.9760 316° Northwest 427 491 34,000  Level FlightAware
07:51AM 51.5420 -8.0540 316° Northwest 427 491 34,000  Level FlightAware
07:51AM 51.5964 -8.1108 316° Northwest 472 543 34,000  Level FlightAware UK
07:51AM 51.5890 -8.1270 316° Northwest 426 490 34,000  Level FlightAware
07:52AM 51.6410 -8.2070 316° Northwest 426 490 34,000  Level FlightAware
07:52AM 51.6880 -8.2810 316° Northwest 426 490 34,000  Level FlightAware
07:53AM 51.7390 -8.3610 316° Northwest 426 490 34,000  Level FlightAware
07:54AM 51.7850 -8.4340 316° Northwest 425 489 34,000  Level FlightAware
07:54AM 51.8440 -8.5230 316° Northwest 429 494 34,000  Level FlightAware
07:54AM 51.8583 -8.5186 316° Northwest 470 541 34,000  Level FlightAware UK
07:55AM 51.9040 -8.5800 316° Northwest 468 539 34,000  Level FlightAware UK
07:55AM 51.8980 -8.5970 316° Northwest 430 495 34,000  Level FlightAware
07:55AM 51.9600 -8.6820 320° Northwest 431 496 34,000  Level FlightAware
07:56AM 52.0050 -8.7440 320° Northwest 432 497 34,000  Level FlightAware
07:57AM 52.0550 -8.8120 320° Northwest 433 498 34,000  Level FlightAware
07:57AM 52.1120 -8.8910 320° Northwest 432 497 34,000  Level FlightAware
07:58AM 52.1630 -8.9620 320° Northwest 432 497 34,000  Level FlightAware
07:58AM 52.1768 -8.9552 320° Northwest 466 536 34,000  Level FlightAware UK
07:58AM 52.2222 -9.0183 320° Northwest 468 539 34,000  Level FlightAware UK
07:58AM 52.2150 -9.0340 320° Northwest 433 498 34,000  Level FlightAware
07:59AM 52.2760 -9.1190 320° Northwest 434 499 34,000  Level FlightAware
07:59AM 52.3220 -9.1830 320° Northwest 435 501 34,000  Level FlightAware
08:00AM 52.3740 -9.2570 319° Northwest 437 503 34,000  Level FlightAware
08:01AM 52.4300 -9.3360 319° Northwest 432 497 34,000  Level FlightAware
08:01AM 52.4850 -9.4130 320° Northwest 433 498 34,000  Level FlightAware
08:02AM 52.5380 -9.4880 319° Northwest 434 499 34,000  Level FlightAware
08:02AM 52.5930 -9.5660 319° Northwest 436 502 34,000  Level FlightAware
08:03AM 52.6460 -9.6430 319° Northwest 444 511 34,000  Level FlightAware
08:04AM 52.7010 -9.7220 319° Northwest 439 505 34,000  Level FlightAware
08:04AM 52.7550 -9.7980 320° Northwest 448 516 34,000  Level FlightAware
08:05AM 52.8100 -9.8780 319° Northwest 449 517 34,000  Level FlightAware
08:05AM 52.8650 -9.9570 319° Northwest 451 519 34,000  Level FlightAware
08:06AM 52.9210 -10.0380 319° Northwest 451 519 34,000  Level FlightAware
08:06AM 52.9680 -10.1060 319° Northwest 452 520 34,000  Level FlightAware
08:07AM 53.0330 -10.2010 319° Northwest 450 518 34,000  Level FlightAware
08:08AM 53.0960 -10.2930 319° Northwest 447 514 34,000  Level FlightAware
08:08AM 53.1490 -10.3720 318° Northwest 440 506 34,000  Level FlightAware
08:09AM 53.2040 -10.4520 319° Northwest 439 505 34,000  Level FlightAware
08:09AM 53.2570 -10.5300 319° Northwest 437 503 34,000  Level FlightAware
08:10AM 53.3110 -10.6110 318° Northwest 437 503 34,000  Level FlightAware
08:11AM 53.3630 -10.6880 319° Northwest 436 502 34,000  Level FlightAware
08:11AM 53.4100 -10.7580 318° Northwest 435 501 34,000  Level FlightAware
08:12AM 53.4700 -10.8490 318° Northwest 433 498 34,000  Level FlightAware
08:12AM 53.5120 -10.9110 319° Northwest 439 505 34,000  Level FlightAware
08:13AM 53.5670 -10.9950 318° Northwest 438 504 34,000  Level FlightAware
08:13AM 53.6140 -11.0650 319° Northwest 437 503 34,000  Level FlightAware
08:14AM 53.6660 -11.1450 318° Northwest 436 502 34,000  Level FlightAware
08:15AM 53.7260 -11.2360 318° Northwest 436 502 34,000  Level FlightAware
08:15AM 53.7730 -11.3080 318° Northwest 436 502 34,000  Level FlightAware
08:16AM 53.8390 -11.4090 318° Northwest 435 501 34,000  Level FlightAware
08:17AM 53.8900 -11.4890 317° Northwest 436 502 34,000  Level FlightAware
08:17AM 53.9430 -11.5700 318° Northwest 436 502 34,000  Level FlightAware
08:18AM 53.9880 -11.6410 317° Northwest 435 501 34,000  Level FlightAware
08:18AM 54.0380 -11.7190 318° Northwest 436 502 34,000  Level FlightAware
08:19AM 54.0840 -11.7910 317° Northwest 438 504 34,000  Level FlightAware
08:19AM 54.1350 -11.8710 317° Northwest 437 503 34,000  Level FlightAware
08:20AM 54.1950 -11.9670 317° Northwest 432 497 34,000  Level FlightAware
08:21AM 54.2450 -12.0490 316° Northwest 435 501 34,000  Level FlightAware
08:21AM 54.3030 -12.1460 316° Northwest 431 496 34,000 240 Level FlightAware
08:22AM 54.3530 -12.2270 317° Northwest 433 498 34,300 840 Climbing FlightAware
08:22AM 54.4010 -12.3060 316° Northwest 432 497 35,000 600 Climbing FlightAware
08:23AM 54.4460 -12.3800 316° Northwest 431 496 35,000  Level FlightAware
08:24AM 54.5160 -12.4960 316° Northwest 431 496 35,000  Level FlightAware
08:24AM 54.5510 -12.5540 316° Northwest 431 496 35,000  Level FlightAware
08:25AM 54.6090 -12.6500 316° Northwest 432 497 35,000  Level FlightAware
08:25AM 54.6590 -12.7340 316° Northwest 432 497 35,000  Level FlightAware
08:26AM 54.7320 -12.8540 317° Northwest 434 499 35,000  Level FlightAware
08:27AM 54.7850 -12.9430 316° Northwest 441 507 35,000  Level FlightAware
08:27AM 54.8340 -13.0240 316° Northwest 436 502 35,000  Level FlightAware
08:28AM 54.9040 -13.1420 316° Northwest 442 509 35,000  Level FlightAware
08:29AM 54.9510 -13.2200 316° Northwest 442 509 35,000  Level FlightAware
08:29AM 54.9960 -13.2950 316° Northwest 442 509 35,000  Level FlightAware
08:30AM 55.0410 -13.3710 316° Northwest 442 509 35,000  Level FlightAware
08:30AM 55.1100 -13.4870 316° Northwest 444 511 35,000  Level FlightAware
08:31AM 55.1730 -13.5970 315° West 439 505 35,000  Level FlightAware
08:32AM 55.2140 -13.6710 314° West 439 505 35,000  Level FlightAware
08:32AM 55.2570 -13.7500 314° West 439 505 35,000  Level FlightAware
08:33AM 55.3000 -13.8280 314° West 439 505 35,000  Level FlightAware
08:34AM 55.3440 -13.9090 314° West 439 505 35,000  Level FlightAware
08:34AM 55.3880 -13.9880 314° West 439 505 35,000  Level FlightAware
08:35AM 55.4310 -14.0670 314° West 439 505 35,000  Level FlightAware
08:35AM 55.4740 -14.1450 314° West 439 505 35,000  Level FlightAware
08:36AM 55.5180 -14.2270 313° West 439 505 35,000  Level FlightAware
08:37AM 55.5610 -14.3060 314° West 439 505 35,000  Level FlightAware
08:37AM 55.6060 -14.3870 315° West 439 505 35,000  Level FlightAware
08:38AM 55.6490 -14.4660 314° West 439 505 35,000  Level FlightAware
08:39AM 55.7040 -14.5670 314° West 439 505 35,000  Level FlightAware
08:39AM 55.7470 -14.6470 314° West 439 505 35,000  Level FlightAware
08:40AM 55.7950 -14.7350 314° West 439 505 35,000  Level FlightAware
08:40AM 55.8380 -14.8150 314° West 439 505 35,000  Level FlightAware
08:43AM 55.8758 -15.2239 280° West  Level Estimated
08:44AM 55.8937 -15.4224 279° West  Level Estimated
08:45AM 55.9112 -15.6211 279° West  Level Estimated
08:46AM 55.9618 -15.8069 296° West  Level FlightAware Approximate
08:47AM 56.0122 -15.9932 296° West  Level FlightAware Approximate
08:48AM 56.0624 -16.1799 296° West  Level FlightAware Approximate
08:49AM 56.1122 -16.3672 296° West  Level FlightAware Approximate
08:50AM 56.1618 -16.5549 295° West  Level FlightAware Approximate
08:51AM 56.2110 -16.7432 295° West  Level FlightAware Approximate
08:52AM 56.2600 -16.9319 295° West  Level FlightAware Approximate
08:53AM 56.3087 -17.1210 295° West  Level FlightAware Approximate
08:54AM 56.3571 -17.3107 295° West  Level FlightAware Approximate
08:55AM 56.4052 -17.5009 295° West  Level FlightAware Approximate
08:56AM 56.4530 -17.6915 294° West  Level FlightAware Approximate
08:57AM 56.5005 -17.8826 294° West  Level FlightAware Approximate
08:58AM 56.5478 -18.0742 294° West  Level FlightAware Approximate
08:59AM 56.5947 -18.2663 294° West  Level FlightAware Approximate
09:00AM 56.6413 -18.4588 294° West  Level FlightAware Approximate
09:01AM 56.6877 -18.6518 294° West  Level FlightAware Approximate
09:02AM 56.7337 -18.8453 294° West  Level FlightAware Approximate
09:03AM 56.7795 -19.0393 293° West  Level FlightAware Approximate
09:04AM 56.8249 -19.2337 293° West  Level FlightAware Approximate
09:05AM 56.8700 -19.4286 293° West  Level FlightAware Approximate
09:06AM 56.9149 -19.6240 293° West  Level FlightAware Approximate
09:06AM 57.0000 -20.0000 285° West 436 502 35,000  Level ETMS Enhanced Traffic Management System
09:07AM 56.9594 -19.8198 293° West  Level FlightAware Approximate
09:08AM 57.0028 -20.0194 285° West  Level FlightAware Approximate
09:09AM 57.0320 -20.2251 285° West  Level FlightAware Approximate
09:10AM 57.0609 -20.4312 285° West  Level FlightAware Approximate
09:11AM 57.0895 -20.6376 284° West  Level FlightAware Approximate
09:12AM 57.2069 -21.5167 283° West 436 502 35,000  Level FlightAware Transoceanic
09:13AM 57.2350 -21.7347 283° West 436 502 35,000  Level FlightAware Transoceanic
09:14AM 57.2627 -21.9531 283° West 436 502 35,000  Level FlightAware Transoceanic
09:15AM 57.2900 -22.1718 283° West 436 502 35,000  Level FlightAware Transoceanic
09:16AM 57.3169 -22.3908 283° West 436 502 35,000  Level FlightAware Transoceanic
09:17AM 57.3434 -22.6101 283° West 436 502 35,000  Level FlightAware Transoceanic
09:18AM 57.3696 -22.8298 282° West 436 502 35,000  Level FlightAware Transoceanic
09:19AM 57.3954 -23.0497 282° West 436 502 35,000  Level FlightAware Transoceanic
09:20AM 57.4208 -23.2700 282° West 436 502 35,000  Level FlightAware Transoceanic
09:21AM 57.4458 -23.4905 282° West 436 502 35,000  Level FlightAware Transoceanic
09:22AM 57.4704 -23.7114 282° West 436 502 35,000  Level FlightAware Transoceanic
09:23AM 57.4946 -23.9326 281° West 436 502 35,000  Level FlightAware Transoceanic
09:24AM 57.5185 -24.1540 281° West 436 502 35,000  Level FlightAware Transoceanic
09:25AM 57.5419 -24.3757 281° West 436 502 35,000  Level FlightAware Transoceanic
09:26AM 57.5650 -24.5978 281° West 436 502 35,000  Level FlightAware Transoceanic
09:27AM 57.5877 -24.8201 281° West 436 502 35,000  Level FlightAware Transoceanic
09:28AM 57.6100 -25.0427 280° West 436 502 35,000  Level FlightAware Transoceanic
09:29AM 57.6319 -25.2655 280° West 436 502 35,000  Level FlightAware Transoceanic
09:30AM 57.6534 -25.4886 280° West 436 502 35,000  Level FlightAware Transoceanic
09:31AM 57.6745 -25.7120 280° West 436 502 35,000  Level FlightAware Transoceanic
09:32AM 57.6952 -25.9356 280° West 436 502 35,000  Level FlightAware Transoceanic
09:33AM 57.7155 -26.1595 280° West 436 502 35,000  Level FlightAware Transoceanic
09:34AM 57.7355 -26.3836 279° West 436 502 35,000  Level FlightAware Transoceanic
09:35AM 57.7550 -26.6080 279° West 436 502 35,000  Level FlightAware Transoceanic
09:36AM 57.7742 -26.8327 279° West 436 502 35,000  Level FlightAware Transoceanic
09:37AM 57.7929 -27.0575 279° West 436 502 35,000  Level FlightAware Transoceanic
09:38AM 57.8112 -27.2826 279° West 436 502 35,000  Level FlightAware Transoceanic
09:39AM 57.8292 -27.5079 278° West 436 502 35,000  Level FlightAware Transoceanic
09:40AM 57.8467 -27.7335 278° West 436 502 35,000  Level FlightAware Transoceanic
09:41AM 57.8638 -27.9592 278° West 436 502 35,000  Level FlightAware Transoceanic
09:42AM 57.8806 -28.1852 278° West 436 502 35,000  Level FlightAware Transoceanic
09:43AM 57.8969 -28.4114 278° West 436 502 35,000  Level FlightAware Transoceanic
09:44AM 57.9129 -28.6377 277° West 436 502 35,000  Level FlightAware Transoceanic
09:45AM 57.9284 -28.8643 277° West 436 502 35,000  Level FlightAware Transoceanic
09:46AM 57.9435 -29.0911 277° West 436 502 35,000  Level FlightAware Transoceanic
09:47AM 57.9582 -29.3180 277° West 436 502 35,000  Level FlightAware Transoceanic
09:48AM 57.9726 -29.5452 277° West 436 502 35,000  Level FlightAware Transoceanic
09:49AM 57.9865 -29.7725 276° West 436 502 35,000  Level FlightAware Transoceanic
09:50AM 57.9994 -29.9895 276° West  Level FlightAware Approximate
09:51AM 58.0119 -30.2067 276° West  Level FlightAware Approximate
09:52AM 58.0262 -30.1911 285° West  Level FlightAware Approximate
09:53AM 58.0549 -30.4030 284° West  Level FlightAware Approximate
09:54AM 58.0832 -30.6152 284° West  Level FlightAware Approximate
09:55AM 58.1112 -30.8277 284° West  Level FlightAware Approximate
09:56AM 58.1388 -31.0406 284° West  Level FlightAware Approximate
09:57AM 58.1660 -31.2538 284° West  Level FlightAware Approximate
09:58AM 58.1929 -31.4673 284° West  Level FlightAware Approximate
09:59AM 58.2195 -31.6812 283° West  Level FlightAware Approximate
10:00AM 58.2456 -31.8953 283° West  Level FlightAware Approximate
10:01AM 58.2715 -32.1098 283° West  Level FlightAware Approximate
10:02AM 58.2969 -32.3246 283° West  Level FlightAware Approximate
10:03AM 58.3220 -32.5397 283° West  Level FlightAware Approximate
10:04AM 58.3468 -32.7551 282° West  Level FlightAware Approximate
10:05AM 58.3729 -32.9701 283° West  Level FlightAware Approximate
10:06AM 58.3988 -33.1852 283° West  Level FlightAware Approximate
10:07AM 58.4245 -33.4007 283° West  Level FlightAware Approximate
10:08AM 58.4497 -33.6166 283° West  Level FlightAware Approximate
10:09AM 58.4746 -33.8327 283° West  Level FlightAware Approximate
10:10AM 58.4991 -34.0491 282° West  Level FlightAware Approximate
10:11AM 58.5233 -34.2658 282° West  Level FlightAware Approximate
10:12AM 58.5471 -34.4828 282° West  Level FlightAware Approximate
10:13AM 58.5705 -34.7001 282° West  Level FlightAware Approximate
10:14AM 58.5936 -34.9178 282° West  Level FlightAware Approximate
10:15AM 58.6163 -35.1356 281° West  Level FlightAware Approximate
10:16AM 58.6386 -35.3538 281° West  Level FlightAware Approximate
10:17AM 58.6606 -35.5722 281° West  Level FlightAware Approximate
10:18AM 58.6814 -35.7912 280° West  Level FlightAware Approximate
10:19AM 58.7016 -36.0106 280° West  Level FlightAware Approximate
10:20AM 58.7214 -36.2302 280° West  Level FlightAware Approximate
10:21AM 58.7408 -36.4500 280° West  Level FlightAware Approximate
10:22AM 58.7598 -36.6701 280° West  Level FlightAware Approximate
10:23AM 58.7785 -36.8904 279° West  Level FlightAware Approximate
10:24AM 58.7967 -37.1110 279° West  Level FlightAware Approximate
10:25AM 58.8146 -37.3318 279° West  Level FlightAware Approximate
10:26AM 58.8322 -37.5528 279° West  Level FlightAware Approximate
10:27AM 58.8493 -37.7741 279° West  Level FlightAware Approximate
10:28AM 58.8661 -37.9955 278° West  Level FlightAware Approximate
10:29AM 58.8825 -38.2172 278° West  Level FlightAware Approximate
10:30AM 58.8985 -38.4391 278° West  Level FlightAware Approximate
10:31AM 58.9141 -38.6611 278° West  Level FlightAware Approximate
10:32AM 58.9294 -38.8834 278° West  Level FlightAware Approximate
10:33AM 58.9442 -39.1059 277° West  Level FlightAware Approximate
10:34AM 58.9587 -39.3285 277° West  Level FlightAware Approximate
10:35AM 58.9728 -39.5514 277° West  Level FlightAware Approximate
10:36AM 58.9865 -39.7744 277° West  Level FlightAware Approximate
10:37AM 58.9999 -39.9976 277° West  Level FlightAware Approximate
10:37AM 59.0000 -40.0000 254° West 415 478 35,000  Level ETMS Enhanced Traffic Management System
10:38AM 58.9675 -40.2131 254° West  Level FlightAware Approximate
10:39AM 58.9343 -40.4281 253° West  Level FlightAware Approximate
10:40AM 58.9008 -40.6427 253° West  Level FlightAware Approximate
10:41AM 58.8669 -40.8569 253° West  Level FlightAware Approximate
10:42AM 58.8327 -41.0706 253° West  Level FlightAware Approximate
10:43AM 58.7982 -41.2830 253° West 415 478 35,000  Level FlightAware Transoceanic
10:44AM 58.7634 -41.4953 252° West 415 478 35,000  Level FlightAware Transoceanic
10:45AM 58.7281 -41.7072 252° West 415 478 35,000  Level FlightAware Transoceanic
10:46AM 58.6926 -41.9188 252° West 415 478 35,000  Level FlightAware Transoceanic
10:47AM 58.6567 -42.1298 252° West 415 478 35,000  Level FlightAware Transoceanic
10:48AM 58.6204 -42.3404 252° West 415 478 35,000  Level FlightAware Transoceanic
10:49AM 58.5839 -42.5506 251° West 415 478 35,000  Level FlightAware Transoceanic
10:50AM 58.5469 -42.7604 251° West 415 478 35,000  Level FlightAware Transoceanic
10:51AM 58.5097 -42.9697 251° West 415 478 35,000  Level FlightAware Transoceanic
10:52AM 58.4720 -43.1786 251° West 415 478 35,000  Level FlightAware Transoceanic
10:53AM 58.4341 -43.3870 251° West 415 478 35,000  Level FlightAware Transoceanic
10:54AM 58.3958 -43.5949 251° West 415 478 35,000  Level FlightAware Transoceanic
10:55AM 58.3572 -43.8024 250° West 415 478 35,000  Level FlightAware Transoceanic
10:56AM 58.3182 -44.0095 250° West 415 478 35,000  Level FlightAware Transoceanic
10:57AM 58.2789 -44.2161 250° West 415 478 35,000  Level FlightAware Transoceanic
10:58AM 58.2393 -44.4222 250° West 415 478 35,000  Level FlightAware Transoceanic
10:59AM 58.1993 -44.6279 250° West 415 478 35,000  Level FlightAware Transoceanic
11:00AM 58.1591 -44.8331 249° West 415 478 35,000  Level FlightAware Transoceanic
11:01AM 58.1184 -45.0378 249° West 415 478 35,000  Level FlightAware Transoceanic
11:02AM 58.0775 -45.2421 249° West 415 478 35,000  Level FlightAware Transoceanic
11:03AM 58.0362 -45.4459 249° West 415 478 35,000  Level FlightAware Transoceanic
11:04AM 57.9946 -45.6492 249° West 415 478 35,000  Level FlightAware Transoceanic
11:05AM 57.9527 -45.8521 249° West 415 478 35,000  Level FlightAware Transoceanic
11:06AM 57.9105 -46.0545 248° West 415 478 35,000  Level FlightAware Transoceanic
11:07AM 57.8679 -46.2564 248° West 415 478 35,000  Level FlightAware Transoceanic
11:08AM 57.8250 -46.4578 248° West 415 478 35,000  Level FlightAware Transoceanic
11:09AM 57.7818 -46.6588 248° West 415 478 35,000  Level FlightAware Transoceanic
11:10AM 57.7383 -46.8592 248° West 415 478 35,000  Level FlightAware Transoceanic
11:11AM 57.6945 -47.0592 248° West 415 478 35,000  Level FlightAware Transoceanic
11:12AM 57.6503 -47.2587 247° West 415 478 35,000  Level FlightAware Transoceanic
11:13AM 57.6059 -47.4577 247° West 415 478 35,000  Level FlightAware Transoceanic
11:14AM 57.5611 -47.6562 247° West 415 478 35,000  Level FlightAware Transoceanic
11:15AM 57.5160 -47.8543 247° West 415 478 35,000  Level FlightAware Transoceanic
11:16AM 57.4706 -48.0518 247° West 415 478 35,000  Level FlightAware Transoceanic
11:17AM 57.4249 -48.2489 247° West 415 478 35,000  Level FlightAware Transoceanic
11:18AM 57.3789 -48.4454 246° West 415 478 35,000  Level FlightAware Transoceanic
11:19AM 57.3326 -48.6415 246° West 415 478 35,000  Level FlightAware Transoceanic
11:20AM 57.2860 -48.8371 246° West 415 478 35,000  Level FlightAware Transoceanic
11:21AM 57.2391 -49.0321 246° West 415 478 35,000  Level FlightAware Transoceanic
11:22AM 57.1919 -49.2267 246° West 415 478 35,000  Level FlightAware Transoceanic
11:23AM 57.1443 -49.4208 246° West 415 478 35,000  Level FlightAware Transoceanic
11:24AM 57.0965 -49.6143 245° Southwest 415 478 35,000  Level FlightAware Transoceanic
11:25AM 57.0484 -49.8074 245° Southwest 415 478 35,000 120 Level FlightAware Transoceanic
11:26AM 56.9999 -50.0005 245° Southwest  Level FlightAware Approximate
11:27AM 56.9998 -50.0010 247° West  Level FlightAware Approximate
11:28AM 56.9553 -50.1971 247° West  Level FlightAware Approximate
11:29AM 56.9105 -50.3927 247° West  Level FlightAware Approximate
11:30AM 56.8655 -50.5879 247° West  Level FlightAware Approximate
11:31AM 56.8201 -50.7826 247° West  Level FlightAware Approximate
11:31AM 57.0000 -50.0000 252° West 394 453 36,000  Level ETMS Enhanced Traffic Management System
11:32AM 56.7744 -50.9768 247° West  Level FlightAware Approximate
11:33AM 56.7286 -51.1707 247° West  Level FlightAware Approximate
11:34AM 56.6836 -51.3660 247° West  Level FlightAware Approximate
11:35AM 56.6383 -51.5608 247° West  Level FlightAware Approximate
11:36AM 56.5927 -51.7552 247° West  Level FlightAware Approximate
11:37AM 56.7570 -51.3329 251° West 394 453 36,000  Level FlightAware Transoceanic
11:38AM 56.7211 -51.5218 251° West 394 453 36,000  Level FlightAware Transoceanic
11:39AM 56.6850 -51.7104 251° West 394 453 36,000  Level FlightAware Transoceanic
11:40AM 56.6485 -51.8987 251° West 394 453 36,000  Level FlightAware Transoceanic
11:41AM 56.6118 -52.0866 250° West 394 453 36,000  Level FlightAware Transoceanic
11:42AM 56.5748 -52.2741 250° West 394 453 36,000  Level FlightAware Transoceanic
11:43AM 56.5375 -52.4613 250° West 394 453 36,000  Level FlightAware Transoceanic
11:44AM 56.5000 -52.6481 250° West 394 453 36,000  Level FlightAware Transoceanic
11:45AM 56.4621 -52.8345 250° West 394 453 36,000  Level FlightAware Transoceanic
11:46AM 56.4240 -53.0205 250° West 394 453 36,000  Level FlightAware Transoceanic
11:47AM 56.3856 -53.2062 249° West 394 453 36,000  Level FlightAware Transoceanic
11:48AM 56.3469 -53.3915 249° West 394 453 36,000  Level FlightAware Transoceanic
11:49AM 56.3079 -53.5764 249° West 394 453 36,000  Level FlightAware Transoceanic
11:50AM 56.2687 -53.7609 249° West 394 453 36,000  Level FlightAware Transoceanic
11:51AM 56.2292 -53.9451 249° West 394 453 36,000  Level FlightAware Transoceanic
11:52AM 56.1894 -54.1289 249° West 394 453 36,000  Level FlightAware Transoceanic
11:53AM 56.1494 -54.3123 249° West 394 453 36,000  Level FlightAware Transoceanic
11:54AM 56.1091 -54.4953 248° West 394 453 36,000  Level FlightAware Transoceanic
11:55AM 56.0685 -54.6779 248° West 394 453 36,000  Level FlightAware Transoceanic
11:56AM 56.0276 -54.8602 248° West 394 453 36,000  Level FlightAware Transoceanic
11:57AM 55.9865 -55.0420 248° West 394 453 36,000  Level FlightAware Transoceanic
11:57AM 55.9333 -55.1167 247° West 430 495 36,000  Level Moncton Center
11:58AM 55.9451 -55.2235 248° West 394 453 36,000  Level FlightAware Transoceanic
11:58AM 55.8833 -55.3333 248° West 430 495 36,000  Level Moncton Center
11:59AM 55.9034 -55.4046 248° West 394 453 36,000  Level FlightAware Transoceanic
11:59AM 55.8500 -55.5333 254° West 440 506 36,000  Level Moncton Center
12:00PM 55.8615 -55.5853 247° West 394 453 36,000  Level FlightAware Transoceanic
12:00PM 55.8000 -55.7500 248° West 440 506 36,000  Level Moncton Center
12:01PM 55.8193 -55.7656 247° West 394 453 36,000  Level FlightAware Transoceanic
12:01PM 55.7333 -55.9167 235° Southwest 430 495 36,000  Level Moncton Center
12:02PM 55.7769 -55.9455 247° West 394 453 36,000  Level FlightAware Transoceanic
12:02PM 55.6667 -56.0667 232° Southwest 430 495 36,000  Level Moncton Center
12:03PM 55.7341 -56.1250 247° West 394 453 36,000  Level FlightAware Transoceanic
12:03PM 55.5833 -56.2333 229° Southwest 430 495 36,000  Level Moncton Center
12:04PM 55.5333 -56.4000 242° Southwest 430 495 36,000  Level Moncton Center
12:05PM 55.4333 -56.6000 229° Southwest 430 495 36,000  Level Moncton Center
12:06PM 55.3833 -56.7500 240° Southwest 440 506 36,000  Level Moncton Center
12:07PM 55.3000 -56.9500 234° Southwest 440 506 36,000  Level Moncton Center
12:08PM 55.2167 -57.1000 226° Southwest 440 506 36,000 420 Level Moncton Center
12:09PM 55.1500 -57.2667 235° Southwest 440 506 36,900 900 Climbing Moncton Center
12:10PM 55.0667 -57.4500 232° Southwest 450 518 37,900 540 Climbing Moncton Center
12:11PM 55.0000 -57.6167 235° Southwest 450 518 38,000  Climbing Moncton Center
12:12PM 54.9167 -57.8000 232° Southwest 450 518 38,000  Level Moncton Center
12:13PM 54.8500 -57.9500 232° Southwest 450 518 38,000  Level Moncton Center
12:14PM 54.7667 -58.1333 232° Southwest 450 518 38,000  Level Moncton Center
12:15PM 54.7000 -58.3000 235° Southwest 450 518 38,000  Level Moncton Center
12:16PM 54.6167 -58.4833 232° Southwest 450 518 38,000  Level Moncton Center
12:17PM 54.5500 -58.6667 238° Southwest 450 518 38,000  Level Moncton Center
12:18PM 54.4667 -58.8167 226° Southwest 450 518 38,000  Level Moncton Center
12:19PM 54.4000 -59.0000 238° Southwest 460 529 38,000  Level Moncton Center
12:20PM 54.3167 -59.1500 226° Southwest 460 529 38,000  Level Moncton Center
12:21PM 54.2167 -59.3333 227° Southwest 460 529 38,000  Level Moncton Center
12:22PM 54.1500 -59.5167 238° Southwest 460 529 38,000  Level Moncton Center
12:23PM 54.0667 -59.6667 227° Southwest 460 529 38,000  Level Moncton Center
12:24PM 53.9833 -59.8500 232° Southwest 460 529 38,000  Level Moncton Center
12:25PM 53.9000 -60.0000 227° Southwest 460 529 38,000  Level Moncton Center
12:26PM 53.8167 -60.1500 227° Southwest 460 529 38,000  Level Moncton Center
12:27PM 53.7167 -60.3333 227° Southwest 460 529 38,000  Level Moncton Center
12:28PM 53.6500 -60.5000 236° Southwest 460 529 38,000  Level Moncton Center
12:29PM 53.5667 -60.6500 227° Southwest 460 529 38,000  Level Moncton Center
12:30PM 53.4833 -60.8333 233° Southwest 460 529 38,000  Level Moncton Center
12:31PM 53.4167 -61.0000 236° Southwest 460 529 38,000  Level Moncton Center
12:32PM 53.3333 -61.1500 227° Southwest 460 529 38,000  Level Moncton Center
12:33PM 53.2333 -61.3167 225° Southwest 460 529 38,000  Level Moncton Center
12:34PM 53.1500 -61.4667 227° Southwest 460 529 38,000  Level Moncton Center
12:35PM 53.0667 -61.6333 230° Southwest 460 529 38,000  Level Moncton Center
12:36PM 53.0000 -61.7833 234° Southwest 450 518 38,000  Level Moncton Center
12:37PM 52.9167 -61.9500 230° Southwest 450 518 38,000  Level Moncton Center
12:38PM 52.8167 -62.1000 222° Southwest 450 518 38,000  Level Moncton Center
12:39PM 52.7500 -62.2667 237° Southwest 450 518 38,000  Level Moncton Center
12:40PM 52.6500 -62.4167 222° Southwest 450 518 38,000  Level Moncton Center
12:41PM 52.5667 -62.5833 231° Southwest 450 518 38,000  Level Moncton Center
12:42PM 52.5000 -62.7500 237° Southwest 460 529 38,000  Level Moncton Center
12:43PM 52.4167 -62.8833 224° Southwest 450 518 38,000  Level Moncton Center
12:44PM 52.3333 -63.0333 228° Southwest 460 529 38,000  Level Moncton Center
12:45PM 52.2333 -63.2000 226° Southwest 460 529 38,000  Level Moncton Center
12:46PM 52.1500 -63.3333 224° Southwest 450 518 38,000  Level Moncton Center
12:47PM 52.0667 -63.5000 231° Southwest 460 529 38,000  Level Moncton Center
12:48PM 51.9833 -63.6667 231° Southwest 450 518 38,000  Level Moncton Center
12:49PM 51.9000 -63.8000 225° Southwest 450 518 38,000  Level Moncton Center
12:50PM 51.8167 -63.9333 225° Southwest 450 518 38,000  Level Moncton Center
12:51PM 51.7167 -64.1000 226° Southwest 450 518 38,000  Level Moncton Center
12:52PM 51.6333 -64.2333 225° Southwest 450 518 38,000  Level Moncton Center
12:53PM 51.5500 -64.4000 231° Southwest 450 518 38,000  Level Moncton Center
12:54PM 51.4667 -64.5333 225° Southwest 450 518 38,000  Level Moncton Center
12:55PM 51.3833 -64.7000 231° Southwest 450 518 38,000  Level Moncton Center
12:56PM 51.3333 -64.7333 203° Southwest 450 518 38,000  Level Montreal Center
12:57PM 51.2333 -64.8833 223° Southwest 450 518 38,000  Level Montreal Center
12:58PM 51.1500 -65.0167 225° Southwest 450 518 38,000  Level Montreal Center
12:59PM 51.0667 -65.1667 229° Southwest 450 518 38,000  Level Montreal Center
01:00PM 50.9833 -65.3000 225° Southwest 450 518 38,000  Level Montreal Center
01:01PM 50.8833 -65.4500 223° Southwest 450 518 38,000  Level Montreal Center
01:02PM 50.8000 -65.6167 232° Southwest 450 518 38,000  Level Montreal Center
01:03PM 50.7333 -65.7333 228° Southwest 440 506 38,000  Level Montreal Center
01:04PM 50.6333 -65.8833 224° Southwest 440 506 38,000  Level Montreal Center
01:05PM 50.5500 -66.0167 225° Southwest 440 506 38,000  Level Montreal Center
01:06PM 50.4667 -66.1667 229° Southwest 440 506 38,000  Level Montreal Center
01:07PM 50.3667 -66.3000 220° Southwest 440 506 38,000  Level Montreal Center
01:08PM 50.3000 -66.4167 228° Southwest 440 506 38,000  Level Montreal Center
01:09PM 50.1833 -66.5667 219° Southwest 440 506 38,000  Level Montreal Center
01:10PM 50.0833 -66.7500 230° Southwest 450 518 38,000  Level Montreal Center
01:11PM 50.0167 -66.8667 228° Southwest 440 506 38,000  Level Montreal Center
01:12PM 49.9167 -66.9833 217° Southwest 430 495 38,000  Level Montreal Center
01:13PM 49.8333 -67.1333 229° Southwest 430 495 38,000  Level Montreal Center
01:14PM 49.7333 -67.2667 221° Southwest 430 495 38,000  Level Montreal Center
01:15PM 49.6667 -67.3833 229° Southwest 430 495 38,000  Level Montreal Center
01:16PM 49.5667 -67.5333 224° Southwest 430 495 38,000  Level Montreal Center
01:17PM 49.4833 -67.6500 222° Southwest 430 495 38,000  Level Montreal Center
01:18PM 49.4000 -67.7667 222° Southwest 430 495 38,000  Level Montreal Center
01:19PM 49.3167 -67.9000 226° Southwest 430 495 38,000  Level Montreal Center
01:20PM 49.2167 -68.0333 221° Southwest 430 495 38,000  Level Montreal Center
01:21PM 49.1333 -68.1667 226° Southwest 430 495 38,000  Level Montreal Center
01:22PM 49.0500 -68.2833 223° Southwest 430 495 38,000  Level Montreal Center
01:23PM 48.9667 -68.4333 230° Southwest 430 495 38,000  Level Montreal Center
01:24PM 48.8833 -68.5500 223° Southwest 430 495 38,000  Level Montreal Center
01:25PM 48.8000 -68.6833 227° Southwest 430 495 38,000  Level Montreal Center
01:31PM 48.2900 -69.4620 227° Southwest 38,000  Level FlightAware
01:31PM 48.2490 -69.5180 222° Southwest 441 507 38,000  Level FlightAware
01:32PM 48.1810 -69.6120 223° Southwest 438 504 38,000  Level FlightAware
01:33PM 48.1280 -69.6860 223° Southwest 436 502 38,000  Level FlightAware
01:33PM 48.0810 -69.7520 223° Southwest 438 504 38,000  Level FlightAware
01:34PM 48.0320 -69.8190 222° Southwest 435 501 38,000  Level FlightAware
01:34PM 47.9730 -69.8990 222° Southwest 436 502 38,000  Level FlightAware
01:35PM 47.9030 -69.9950 223° Southwest 438 504 38,000  Level FlightAware
01:36PM 47.8630 -70.0510 223° Southwest 438 504 38,000  Level FlightAware
01:36PM 47.8000 -70.1360 222° Southwest 436 502 38,000  Level FlightAware
01:37PM 47.7410 -70.2160 222° Southwest 433 498 38,000  Level FlightAware
01:38PM 47.6870 -70.2870 222° Southwest 431 496 38,000  Level FlightAware
01:38PM 47.6290 -70.3650 222° Southwest 429 494 38,000  Level FlightAware
01:39PM 47.5780 -70.4340 222° Southwest 429 494 38,000  Level FlightAware
01:40PM 47.5260 -70.5030 222° Southwest 426 490 38,000  Level FlightAware
01:40PM 47.4610 -70.5900 222° Southwest 426 490 38,000  Level FlightAware
01:41PM 47.4170 -70.6490 222° Southwest 424 488 38,000  Level FlightAware
01:41PM 47.3590 -70.7250 222° Southwest 423 487 38,000  Level FlightAware
01:42PM 47.3150 -70.7820 221° Southwest 423 487 38,000  Level FlightAware
01:43PM 47.2570 -70.8580 222° Southwest 422 486 38,000  Level FlightAware
01:43PM 47.2130 -70.9160 222° Southwest 422 486 38,000  Level FlightAware
01:44PM 47.1620 -70.9810 221° Southwest 423 487 38,000  Level FlightAware
01:44PM 47.1040 -71.0580 222° Southwest 425 489 38,000  Level FlightAware
01:45PM 47.0520 -71.1250 221° Southwest 424 488 38,000  Level FlightAware
01:45PM 47.0130 -71.1760 222° Southwest 424 488 38,000  Level FlightAware
01:46PM 46.9590 -71.2450 221° Southwest 425 489 38,000  Level FlightAware
01:47PM 46.9060 -71.3140 222° Southwest 426 490 38,000  Level FlightAware
01:47PM 46.8480 -71.3880 221° Southwest 425 489 38,000  Level FlightAware
01:48PM 46.8030 -71.4470 222° Southwest 425 489 38,000  Level FlightAware
01:48PM 46.7540 -71.5090 221° Southwest 425 489 38,000  Level FlightAware
01:49PM 46.6930 -71.5870 221° Southwest 423 487 38,000  Level FlightAware
01:50PM 46.6500 -71.6420 221° Southwest 420 483 38,000 -420 Level FlightAware
01:50PM 46.6010 -71.7100 224° Southwest 409 471 37,600 -900 Descending FlightAware
01:51PM 46.5500 -71.7890 227° Southwest 408 470 36,900 -1,200 Descending FlightAware
01:51PM 46.5110 -71.8490 227° Southwest 402 463 36,200 -2,400 Descending FlightAware
01:52PM 46.4600 -71.9240 225° Southwest 403 464 34,100 -3,180 Descending FlightAware
01:52PM 46.4200 -71.9820 225° Southwest 407 468 32,500 -2,880 Descending FlightAware
01:53PM 46.3750 -72.0480 225° Southwest 401 461 31,000 -2,580 Descending FlightAware
01:54PM 46.3280 -72.1150 225° Southwest 394 453 29,500 -2,460 Descending FlightAware
01:54PM 46.2850 -72.1800 226° Southwest 386 444 28,100 -2,340 Descending FlightAware
01:55PM 46.2410 -72.2440 225° Southwest 379 436 26,800 -2,400 Descending FlightAware
01:55PM 46.1930 -72.3150 226° Southwest 373 429 25,200 -2,400 Descending FlightAware
01:56PM 46.1500 -72.3770 225° Southwest 369 425 23,800 -2,220 Descending FlightAware
01:57PM 46.1170 -72.4260 226° Southwest 366 421 22,800 -2,220 Descending FlightAware
01:57PM 46.0740 -72.4880 225° Southwest 363 418 21,400 -2,340 Descending FlightAware
01:58PM 46.0280 -72.5530 224° Southwest 358 412 19,900 -2,280 Descending FlightAware
01:58PM 45.9920 -72.6060 226° Southwest 354 407 18,800 -2,340 Descending FlightAware
01:59PM 45.9460 -72.6720 225° Southwest 348 400 17,200 -2,280 Descending FlightAware
02:00PM 45.9080 -72.7270 225° Southwest 345 397 16,000 -2,160 Descending FlightAware
02:00PM 45.8740 -72.7760 225° Southwest 342 394 14,900 -2,160 Descending FlightAware
02:01PM 45.8290 -72.8400 225° Southwest 341 392 13,500 -2,160 Descending FlightAware
02:01PM 45.7930 -72.8920 225° Southwest 336 387 12,200 -2,160 Descending FlightAware
02:02PM 45.7440 -72.9620 225° Southwest 333 383 10,800 -1,980 Descending FlightAware
02:02PM 45.7320 -72.9820 229° Southwest 325 374 10,500 -720 Descending FlightAware
02:03PM 45.7170 -73.0370 249° West 291 335 10,300 -540 Descending FlightAware
02:03PM 45.7120 -73.0890 262° West 271 312 10,000 -1,080 Descending FlightAware
02:03PM 45.7100 -73.1100 262° West 262 302 9,600 -1,740 Descending FlightAware
02:04PM 45.7060 -73.1440 260° West 246 283 9,100 -1,500 Descending FlightAware
02:04PM 45.7000 -73.1800 257° West 230 265 8,500 -1,320 Descending FlightAware
02:04PM 45.6940 -73.2110 255° West 227 261 8,100 -1,320 Descending FlightAware
02:05PM 45.6940 -73.2290 270° West 223 257 7,800 -1,140 Descending FlightAware
02:05PM 45.6950 -73.2340 286° West 223 257 7,800 -480 Level FlightAware
02:05PM 45.6980 -73.2450 291° West 219 252 7,700 -840 Descending FlightAware
02:05PM 45.7080 -73.2730 297° West 206 237 7,400 -900 Descending FlightAware
02:06PM 45.7160 -73.2960 296° West 195 224 7,100 -960 Descending FlightAware
02:06PM 45.7260 -73.3230 298° West 188 216 6,700 -900 Descending FlightAware
02:06PM 45.7320 -73.3400 297° West 186 214 6,500 -1,020 Descending FlightAware
02:07PM 45.7420 -73.3690 296° West 182 209 6,000 -1,140 Descending FlightAware
02:07PM 45.7500 -73.3930 296° West 179 206 5,600 -1,200 Descending FlightAware
02:07PM 45.7500 -73.3980 270° West 178 205 5,500 -1,020 Descending FlightAware
02:07PM 45.7480 -73.4070 252° West 179 206 5,400 -780 Descending FlightAware
02:07PM 45.7450 -73.4120 229° Southwest 182 209 5,300 -780 Descending FlightAware
02:07PM 45.7380 -73.4190 215° Southwest 185 213 5,200 -1,020 Descending FlightAware
02:08PM 45.7260 -73.4280 208° Southwest 191 220 4,900 -780 Descending FlightAware
02:08PM 45.7140 -73.4390 213° Southwest 188 216 4,800 -540 Descending FlightAware
02:08PM 45.7080 -73.4460 219° Southwest 187 215 4,700 -660 Descending FlightAware
02:08PM 45.6950 -73.4610 219° Southwest 184 212 4,500 -480 Descending FlightAware
02:09PM 45.6820 -73.4760 219° Southwest 180 207 4,400 -300 Descending FlightAware
02:09PM 45.6680 -73.4930 220° Southwest 181 208 4,300 -360 Descending FlightAware
02:09PM 45.6600 -73.5050 226° Southwest 179 206 4,200 -420 Descending FlightAware
02:10PM 45.6490 -73.5210 225° Southwest 171 197 4,100  Descending FlightAware
02:10PM 45.6380 -73.5350 222° Southwest 160 184 4,200 120 Climbing FlightAware
02:10PM 45.6300 -73.5470 226° Southwest 161 185 4,200 -600 Level FlightAware
02:11PM 45.6150 -73.5660 222° Southwest 163 188 3,800 -840 Descending FlightAware
02:11PM 45.6060 -73.5790 225° Southwest 160 184 3,600 -720 Descending FlightAware
02:11PM 45.5980 -73.5890 221° Southwest 159 183 3,400 -1,020 Descending FlightAware
02:12PM 45.5870 -73.6040 224° Southwest 154 177 3,000 -900 Descending FlightAware
02:12PM 45.5760 -73.6180 222° Southwest 157 181 2,800 -780 Descending FlightAware
02:12PM 45.5650 -73.6330 224° Southwest 157 181 2,500 -900 Descending FlightAware
02:13PM 45.5540 -73.6480 224° Southwest 154 177 2,200 -900 Descending FlightAware
02:13PM 45.5440 -73.6620 224° Southwest 157 181 1,900 -900 Descending FlightAware
02:13PM 45.5320 -73.6780 223° Southwest 149 171 1,600 -900 Descending FlightAware
02:14PM 45.5230 -73.6890 221° Southwest 142 163 1,300 -900 Descending FlightAware
02:14PM 45.5150 -73.6990 221° Southwest 137 158 1,100 -660 Descending FlightAware
02:14PM 45.5050 -73.7130 224° Southwest 133 153 900 -600 Descending FlightAware
02:15PM 45.4940 -73.7280 224° Southwest 135 155 600 -720 Descending FlightAware
02:15PM 45.4870 -73.7370 222° Southwest 131 151 400 -720 Descending FlightAware
02:15PM 45.4790 -73.7480 224° Southwest 135 155 200 -240 Descending FlightAware
02:16PM 45.4660 -73.7640 221° Southwest 135 155 200  Level FlightAware